sensor_id;sensor_type;location;lat;lon;timestamp;P1;durP1;ratioP1;P2;durP2;ratioP2
19193;SDS011;9729;52.296;13.260;2023-08-24T00:00:15;9.63;;;8.60;;
19193;SDS011;9729;52.296;13.260;2023-08-24T00:02:41;9.33;;;8.40;;
19193;SDS011;9729;52.296;13.260;2023-08-24T00:05:08;9.20;;;8.40;;
19193;SDS011;9729;52.296;13.260;2023-08-24T00:07:34;10.97;;;9.37;;
19193;SDS011;9729;52.296;13.260;2023-08-24T00:10:01;9.67;;;8.77;;
19193;SDS011;9729;52.296;13.260;2023-08-24T00:12:29;8.93;;;8.00;;
19193;SDS011;9729;52.296;13.260;2023-08-24T00:14:56;12.30;;;8.80;;
19193;SDS011;9729;52.296;13.260;2023-08-24T00:17:23;9.60;;;8.80;;
19193;SDS011;9729;52.296;13.260;2023-08-24T00:19:49;9.80;;;8.97;;
19193;SDS011;9729;52.296;13.260;2023-08-24T00:22:16;13.43;;;9.43;;
19193;SDS011;9729;52.296;13.260;2023-08-24T00:24:43;14.10;;;9.07;;
19193;SDS011;9729;52.296;13.260;2023-08-24T00:27:09;9.97;;;9.00;;
19193;SDS011;9729;52.296;13.260;2023-08-24T00:29:35;10.90;;;9.80;;
19193;SDS011;9729;52.296;13.260;2023-08-24T00:32:03;13.13;;;9.43;;
19193;SDS011;9729;52.296;13.260;2023-08-24T00:34:30;9.83;;;9.03;;
19193;SDS011;9729;52.296;13.260;2023-08-24T00:36:56;10.13;;;9.30;;
19193;SDS011;9729;52.296;13.260;2023-08-24T00:39:22;10.37;;;9.47;;
19193;SDS011;9729;52.296;13.260;2023-08-24T00:41:49;9.67;;;8.67;;
19193;SDS011;9729;52.296;13.260;2023-08-24T00:44:15;9.27;;;8.57;;
19193;SDS011;9729;52.296;13.260;2023-08-24T00:46:42;9.47;;;8.73;;
19193;SDS011;9729;52.296;13.260;2023-08-24T00:49:10;15.10;;;9.20;;
19193;SDS011;9729;52.296;13.260;2023-08-24T00:51:36;9.63;;;8.83;;
19193;SDS011;9729;52.296;13.260;2023-08-24T00:54:04;10.57;;;9.50;;
19193;SDS011;9729;52.296;13.260;2023-08-24T00:56:30;9.47;;;8.60;;
19193;SDS011;9729;52.296;13.260;2023-08-24T00:58:57;9.60;;;8.70;;
19193;SDS011;9729;52.296;13.260;2023-08-24T01:01:23;12.60;;;9.27;;
19193;SDS011;9729;52.296;13.260;2023-08-24T01:03:50;12.23;;;8.90;;
19193;SDS011;9729;52.296;13.260;2023-08-24T01:06:18;13.47;;;8.90;;
19193;SDS011;9729;52.296;13.260;2023-08-24T01:08:44;12.63;;;9.27;;
19193;SDS011;9729;52.296;13.260;2023-08-24T01:11:12;10.30;;;9.30;;
19193;SDS011;9729;52.296;13.260;2023-08-24T01:13:50;13.27;;;9.27;;
19193;SDS011;9729;52.296;13.260;2023-08-24T01:16:20;11.20;;;9.17;;
19193;SDS011;9729;52.296;13.260;2023-08-24T01:18:52;10.67;;;9.60;;
19193;SDS011;9729;52.296;13.260;2023-08-24T01:21:21;10.17;;;9.27;;
19193;SDS011;9729;52.296;13.260;2023-08-24T01:23:48;11.13;;;9.20;;
19193;SDS011;9729;52.296;13.260;2023-08-24T01:26:21;10.97;;;9.10;;
19193;SDS011;9729;52.296;13.260;2023-08-24T01:28:48;10.60;;;9.17;;
19193;SDS011;9729;52.296;13.260;2023-08-24T01:31:15;10.50;;;9.37;;
19193;SDS011;9729;52.296;13.260;2023-08-24T01:33:42;14.07;;;9.70;;
19193;SDS011;9729;52.296;13.260;2023-08-24T01:36:09;10.40;;;9.50;;
19193;SDS011;9729;52.296;13.260;2023-08-24T01:38:36;10.90;;;9.67;;
19193;SDS011;9729;52.296;13.260;2023-08-24T01:41:07;10.17;;;9.37;;
19193;SDS011;9729;52.296;13.260;2023-08-24T01:43:37;10.87;;;9.83;;
19193;SDS011;9729;52.296;13.260;2023-08-24T01:46:05;11.90;;;10.70;;
19193;SDS011;9729;52.296;13.260;2023-08-24T01:48:33;11.67;;;10.67;;
19193;SDS011;9729;52.296;13.260;2023-08-24T01:51:00;10.60;;;9.77;;
19193;SDS011;9729;52.296;13.260;2023-08-24T01:53:28;11.63;;;10.47;;
19193;SDS011;9729;52.296;13.260;2023-08-24T01:55:55;13.40;;;10.20;;
19193;SDS011;9729;52.296;13.260;2023-08-24T01:58:22;15.70;;;10.00;;
19193;SDS011;9729;52.296;13.260;2023-08-24T02:00:50;10.93;;;10.07;;
19193;SDS011;9729;52.296;13.260;2023-08-24T02:03:16;11.07;;;10.03;;
19193;SDS011;9729;52.296;13.260;2023-08-24T02:05:43;16.57;;;10.30;;
19193;SDS011;9729;52.296;13.260;2023-08-24T02:08:09;11.17;;;9.23;;
19193;SDS011;9729;52.296;13.260;2023-08-24T02:10:35;10.83;;;9.83;;
19193;SDS011;9729;52.296;13.260;2023-08-24T02:13:02;10.87;;;9.77;;
19193;SDS011;9729;52.296;13.260;2023-08-24T02:15:28;9.90;;;9.20;;
19193;SDS011;9729;52.296;13.260;2023-08-24T02:17:56;11.60;;;10.50;;
19193;SDS011;9729;52.296;13.260;2023-08-24T02:20:22;10.37;;;9.40;;
19193;SDS011;9729;52.296;13.260;2023-08-24T02:22:49;10.97;;;9.93;;
19193;SDS011;9729;52.296;13.260;2023-08-24T02:25:15;11.03;;;9.80;;
19193;SDS011;9729;52.296;13.260;2023-08-24T02:27:42;10.87;;;9.77;;
19193;SDS011;9729;52.296;13.260;2023-08-24T02:30:08;10.00;;;9.20;;
19193;SDS011;9729;52.296;13.260;2023-08-24T02:32:35;12.63;;;9.63;;
19193;SDS011;9729;52.296;13.260;2023-08-24T02:35:03;11.00;;;9.90;;
19193;SDS011;9729;52.296;13.260;2023-08-24T02:37:30;11.43;;;10.00;;
19193;SDS011;9729;52.296;13.260;2023-08-24T02:39:57;11.17;;;10.10;;
19193;SDS011;9729;52.296;13.260;2023-08-24T02:42:23;12.27;;;9.60;;
19193;SDS011;9729;52.296;13.260;2023-08-24T02:44:49;12.97;;;9.40;;
19193;SDS011;9729;52.296;13.260;2023-08-24T02:47:16;16.57;;;9.77;;
19193;SDS011;9729;52.296;13.260;2023-08-24T02:49:42;12.70;;;9.40;;
19193;SDS011;9729;52.296;13.260;2023-08-24T02:52:10;15.03;;;9.80;;
19193;SDS011;9729;52.296;13.260;2023-08-24T02:54:36;11.37;;;10.27;;
19193;SDS011;9729;52.296;13.260;2023-08-24T02:57:02;11.70;;;10.10;;
19193;SDS011;9729;52.296;13.260;2023-08-24T02:59:29;11.50;;;10.40;;
19193;SDS011;9729;52.296;13.260;2023-08-24T03:01:55;12.17;;;9.77;;
19193;SDS011;9729;52.296;13.260;2023-08-24T03:04:21;10.37;;;9.27;;
19193;SDS011;9729;52.296;13.260;2023-08-24T03:06:48;11.03;;;10.00;;
19193;SDS011;9729;52.296;13.260;2023-08-24T03:09:15;12.40;;;10.60;;
19193;SDS011;9729;52.296;13.260;2023-08-24T03:11:42;13.43;;;10.67;;
19193;SDS011;9729;52.296;13.260;2023-08-24T03:14:08;11.37;;;10.47;;
19193;SDS011;9729;52.296;13.260;2023-08-24T03:16:35;14.53;;;12.20;;
19193;SDS011;9729;52.296;13.260;2023-08-24T03:19:03;12.67;;;11.47;;
19193;SDS011;9729;52.296;13.260;2023-08-24T03:21:29;13.07;;;11.57;;
19193;SDS011;9729;52.296;13.260;2023-08-24T03:23:55;12.97;;;11.53;;
19193;SDS011;9729;52.296;13.260;2023-08-24T03:26:23;12.23;;;11.03;;
19193;SDS011;9729;52.296;13.260;2023-08-24T03:28:49;11.13;;;10.13;;
19193;SDS011;9729;52.296;13.260;2023-08-24T03:31:16;12.88;;;11.63;;
19193;SDS011;9729;52.296;13.260;2023-08-24T03:33:42;11.37;;;10.23;;
19193;SDS011;9729;52.296;13.260;2023-08-24T03:36:08;11.37;;;10.37;;
19193;SDS011;9729;52.296;13.260;2023-08-24T03:38:35;10.13;;;9.33;;
19193;SDS011;9729;52.296;13.260;2023-08-24T03:41:01;12.33;;;9.90;;
19193;SDS011;9729;52.296;13.260;2023-08-24T03:43:31;11.80;;;9.60;;
19193;SDS011;9729;52.296;13.260;2023-08-24T03:45:57;10.37;;;9.57;;
19193;SDS011;9729;52.296;13.260;2023-08-24T03:48:23;11.45;;;10.48;;
19193;SDS011;9729;52.296;13.260;2023-08-24T03:50:53;12.23;;;10.77;;
19193;SDS011;9729;52.296;13.260;2023-08-24T03:53:20;10.13;;;9.17;;
19193;SDS011;9729;52.296;13.260;2023-08-24T03:55:46;12.10;;;10.83;;
19193;SDS011;9729;52.296;13.260;2023-08-24T03:58:13;14.30;;;9.50;;
19193;SDS011;9729;52.296;13.260;2023-08-24T04:00:41;10.83;;;9.50;;
19193;SDS011;9729;52.296;13.260;2023-08-24T04:03:07;12.93;;;9.50;;
19193;SDS011;9729;52.296;13.260;2023-08-24T04:05:34;11.27;;;9.10;;
19193;SDS011;9729;52.296;13.260;2023-08-24T04:08:00;9.97;;;9.07;;
19193;SDS011;9729;52.296;13.260;2023-08-24T04:10:27;12.47;;;9.90;;
19193;SDS011;9729;52.296;13.260;2023-08-24T04:12:52;12.13;;;9.20;;
19193;SDS011;9729;52.296;13.260;2023-08-24T04:15:19;12.97;;;10.00;;
19193;SDS011;9729;52.296;13.260;2023-08-24T04:17:47;13.40;;;9.37;;
19193;SDS011;9729;52.296;13.260;2023-08-24T04:20:13;13.77;;;9.50;;
19193;SDS011;9729;52.296;13.260;2023-08-24T04:22:39;14.57;;;9.33;;
19193;SDS011;9729;52.296;13.260;2023-08-24T04:25:06;12.27;;;9.07;;
19193;SDS011;9729;52.296;13.260;2023-08-24T04:27:33;11.23;;;9.80;;
19193;SDS011;9729;52.296;13.260;2023-08-24T04:29:59;10.80;;;9.77;;
19193;SDS011;9729;52.296;13.260;2023-08-24T04:32:26;10.23;;;9.30;;
19193;SDS011;9729;52.296;13.260;2023-08-24T04:34:55;17.70;;;9.47;;
19193;SDS011;9729;52.296;13.260;2023-08-24T04:37:21;10.70;;;8.40;;
19193;SDS011;9729;52.296;13.260;2023-08-24T04:39:47;9.57;;;8.67;;
19193;SDS011;9729;52.296;13.260;2023-08-24T04:42:14;11.30;;;10.20;;
19193;SDS011;9729;52.296;13.260;2023-08-24T04:44:40;10.27;;;8.70;;
19193;SDS011;9729;52.296;13.260;2023-08-24T04:47:06;10.10;;;9.10;;
19193;SDS011;9729;52.296;13.260;2023-08-24T04:49:33;9.50;;;8.70;;
19193;SDS011;9729;52.296;13.260;2023-08-24T04:52:00;9.40;;;8.50;;
19193;SDS011;9729;52.296;13.260;2023-08-24T04:54:27;11.47;;;8.90;;
19193;SDS011;9729;52.296;13.260;2023-08-24T04:56:54;12.07;;;8.53;;
19193;SDS011;9729;52.296;13.260;2023-08-24T04:59:20;12.37;;;8.33;;
19193;SDS011;9729;52.296;13.260;2023-08-24T05:01:46;9.43;;;8.52;;
19193;SDS011;9729;52.296;13.260;2023-08-24T05:04:13;9.10;;;8.20;;
19193;SDS011;9729;52.296;13.260;2023-08-24T05:06:39;9.30;;;8.23;;
19193;SDS011;9729;52.296;13.260;2023-08-24T05:09:07;9.47;;;7.70;;
19193;SDS011;9729;52.296;13.260;2023-08-24T05:11:34;7.97;;;7.30;;
19193;SDS011;9729;52.296;13.260;2023-08-24T05:14:00;14.27;;;7.53;;
19193;SDS011;9729;52.296;13.260;2023-08-24T05:16:26;9.30;;;7.85;;
19193;SDS011;9729;52.296;13.260;2023-08-24T05:18:53;8.10;;;7.40;;
19193;SDS011;9729;52.296;13.260;2023-08-24T05:21:20;12.27;;;7.67;;
19193;SDS011;9729;52.296;13.260;2023-08-24T05:23:46;10.70;;;6.93;;
19193;SDS011;9729;52.296;13.260;2023-08-24T05:26:14;10.07;;;7.53;;
19193;SDS011;9729;52.296;13.260;2023-08-24T05:28:47;9.23;;;7.27;;
19193;SDS011;9729;52.296;13.260;2023-08-24T05:31:13;8.93;;;7.63;;
19193;SDS011;9729;52.296;13.260;2023-08-24T05:33:40;8.63;;;7.57;;
19193;SDS011;9729;52.296;13.260;2023-08-24T05:36:06;8.00;;;7.20;;
19193;SDS011;9729;52.296;13.260;2023-08-24T05:38:32;8.20;;;7.43;;
19193;SDS011;9729;52.296;13.260;2023-08-24T05:40:59;11.93;;;7.40;;
19193;SDS011;9729;52.296;13.260;2023-08-24T05:43:26;8.90;;;7.37;;
19193;SDS011;9729;52.296;13.260;2023-08-24T05:45:52;10.57;;;7.37;;
19193;SDS011;9729;52.296;13.260;2023-08-24T05:48:19;8.40;;;7.60;;
19193;SDS011;9729;52.296;13.260;2023-08-24T05:50:45;8.30;;;7.60;;
19193;SDS011;9729;52.296;13.260;2023-08-24T05:53:12;8.43;;;7.40;;
19193;SDS011;9729;52.296;13.260;2023-08-24T05:55:39;7.77;;;6.93;;
19193;SDS011;9729;52.296;13.260;2023-08-24T05:58:05;7.40;;;6.63;;
19193;SDS011;9729;52.296;13.260;2023-08-24T06:00:33;8.57;;;6.47;;
19193;SDS011;9729;52.296;13.260;2023-08-24T06:02:59;7.87;;;7.07;;
19193;SDS011;9729;52.296;13.260;2023-08-24T06:05:26;11.00;;;6.77;;
19193;SDS011;9729;52.296;13.260;2023-08-24T06:07:52;7.80;;;6.70;;
19193;SDS011;9729;52.296;13.260;2023-08-24T06:10:19;10.77;;;7.43;;
19193;SDS011;9729;52.296;13.260;2023-08-24T06:12:46;8.50;;;6.47;;
19193;SDS011;9729;52.296;13.260;2023-08-24T06:15:12;17.23;;;7.60;;
19193;SDS011;9729;52.296;13.260;2023-08-24T06:17:40;6.90;;;6.30;;
19193;SDS011;9729;52.296;13.260;2023-08-24T06:20:07;9.07;;;6.40;;
19193;SDS011;9729;52.296;13.260;2023-08-24T06:22:36;9.57;;;5.93;;
19193;SDS011;9729;52.296;13.260;2023-08-24T06:25:02;6.83;;;5.83;;
19193;SDS011;9729;52.296;13.260;2023-08-24T06:27:30;11.13;;;6.03;;
19193;SDS011;9729;52.296;13.260;2023-08-24T06:29:56;6.97;;;6.27;;
19193;SDS011;9729;52.296;13.260;2023-08-24T06:32:23;9.30;;;5.63;;
19193;SDS011;9729;52.296;13.260;2023-08-24T06:34:50;7.17;;;6.27;;
19193;SDS011;9729;52.296;13.260;2023-08-24T06:37:17;7.43;;;5.77;;
19193;SDS011;9729;52.296;13.260;2023-08-24T06:39:43;7.07;;;6.37;;
19193;SDS011;9729;52.296;13.260;2023-08-24T06:42:09;7.70;;;5.37;;
19193;SDS011;9729;52.296;13.260;2023-08-24T06:44:36;5.50;;;4.87;;
19193;SDS011;9729;52.296;13.260;2023-08-24T06:47:02;6.90;;;5.13;;
19193;SDS011;9729;52.296;13.260;2023-08-24T06:49:29;13.47;;;5.93;;
19193;SDS011;9729;52.296;13.260;2023-08-24T06:51:56;8.43;;;5.10;;
19193;SDS011;9729;52.296;13.260;2023-08-24T06:54:23;5.57;;;5.00;;
19193;SDS011;9729;52.296;13.260;2023-08-24T06:56:49;6.00;;;5.40;;
19193;SDS011;9729;52.296;13.260;2023-08-24T06:59:15;8.27;;;5.10;;
19193;SDS011;9729;52.296;13.260;2023-08-24T07:01:41;5.27;;;4.80;;
19193;SDS011;9729;52.296;13.260;2023-08-24T07:04:08;6.60;;;5.77;;
19193;SDS011;9729;52.296;13.260;2023-08-24T07:06:34;10.33;;;5.90;;
19193;SDS011;9729;52.296;13.260;2023-08-24T07:09:02;6.37;;;5.53;;
19193;SDS011;9729;52.296;13.260;2023-08-24T07:11:31;8.03;;;5.87;;
19193;SDS011;9729;52.296;13.260;2023-08-24T07:13:57;5.57;;;5.07;;
19193;SDS011;9729;52.296;13.260;2023-08-24T07:16:24;5.50;;;4.97;;
19193;SDS011;9729;52.296;13.260;2023-08-24T07:18:50;5.07;;;4.30;;
19193;SDS011;9729;52.296;13.260;2023-08-24T07:21:16;9.33;;;4.77;;
19193;SDS011;9729;52.296;13.260;2023-08-24T07:23:43;5.13;;;4.43;;
19193;SDS011;9729;52.296;13.260;2023-08-24T07:26:11;4.63;;;4.23;;
19193;SDS011;9729;52.296;13.260;2023-08-24T07:28:38;5.53;;;4.63;;
19193;SDS011;9729;52.296;13.260;2023-08-24T07:31:07;6.07;;;4.80;;
19193;SDS011;9729;52.296;13.260;2023-08-24T07:33:35;6.87;;;4.40;;
19193;SDS011;9729;52.296;13.260;2023-08-24T07:36:02;4.77;;;4.30;;
19193;SDS011;9729;52.296;13.260;2023-08-24T07:38:29;10.47;;;4.67;;
19193;SDS011;9729;52.296;13.260;2023-08-24T07:40:55;13.20;;;4.70;;
19193;SDS011;9729;52.296;13.260;2023-08-24T07:43:23;9.30;;;4.57;;
19193;SDS011;9729;52.296;13.260;2023-08-24T07:45:49;5.07;;;4.03;;
19193;SDS011;9729;52.296;13.260;2023-08-24T07:48:16;8.50;;;4.20;;
19193;SDS011;9729;52.296;13.260;2023-08-24T07:50:43;5.07;;;4.43;;
19193;SDS011;9729;52.296;13.260;2023-08-24T07:53:09;6.73;;;4.50;;
19193;SDS011;9729;52.296;13.260;2023-08-24T07:55:36;6.07;;;4.03;;
19193;SDS011;9729;52.296;13.260;2023-08-24T07:58:02;6.13;;;4.27;;
19193;SDS011;9729;52.296;13.260;2023-08-24T08:00:30;8.60;;;4.20;;
19193;SDS011;9729;52.296;13.260;2023-08-24T08:02:57;4.30;;;3.73;;
19193;SDS011;9729;52.296;13.260;2023-08-24T08:05:23;6.20;;;4.07;;
19193;SDS011;9729;52.296;13.260;2023-08-24T08:07:49;6.50;;;4.00;;
19193;SDS011;9729;52.296;13.260;2023-08-24T08:10:16;9.03;;;4.23;;
19193;SDS011;9729;52.296;13.260;2023-08-24T08:12:42;8.57;;;4.37;;
19193;SDS011;9729;52.296;13.260;2023-08-24T08:15:09;12.25;;;3.80;;
19193;SDS011;9729;52.296;13.260;2023-08-24T08:17:36;6.37;;;3.60;;
19193;SDS011;9729;52.296;13.260;2023-08-24T08:20:03;5.38;;;3.45;;
19193;SDS011;9729;52.296;13.260;2023-08-24T08:22:30;4.97;;;4.03;;
19193;SDS011;9729;52.296;13.260;2023-08-24T08:25:00;5.20;;;3.58;;
19193;SDS011;9729;52.296;13.260;2023-08-24T08:27:26;9.02;;;4.05;;
19193;SDS011;9729;52.296;13.260;2023-08-24T08:29:53;6.55;;;3.55;;
19193;SDS011;9729;52.296;13.260;2023-08-24T08:32:19;9.70;;;3.95;;
19193;SDS011;9729;52.296;13.260;2023-08-24T08:34:47;6.63;;;4.07;;
19193;SDS011;9729;52.296;13.260;2023-08-24T08:37:13;4.63;;;3.92;;
19193;SDS011;9729;52.296;13.260;2023-08-24T08:39:40;4.10;;;3.70;;
19193;SDS011;9729;52.296;13.260;2023-08-24T08:42:10;4.75;;;4.00;;
19193;SDS011;9729;52.296;13.260;2023-08-24T08:44:37;9.25;;;4.00;;
19193;SDS011;9729;52.296;13.260;2023-08-24T08:47:04;7.30;;;4.10;;
19193;SDS011;9729;52.296;13.260;2023-08-24T08:49:33;5.13;;;3.70;;
19193;SDS011;9729;52.296;13.260;2023-08-24T08:52:02;8.52;;;3.60;;
19193;SDS011;9729;52.296;13.260;2023-08-24T08:54:28;5.75;;;3.63;;
19193;SDS011;9729;52.296;13.260;2023-08-24T08:56:55;10.50;;;4.38;;
19193;SDS011;9729;52.296;13.260;2023-08-24T08:59:21;13.77;;;4.38;;
19193;SDS011;9729;52.296;13.260;2023-08-24T09:01:49;7.40;;;3.97;;
19193;SDS011;9729;52.296;13.260;2023-08-24T09:04:17;8.18;;;4.38;;
19193;SDS011;9729;52.296;13.260;2023-08-24T09:06:43;9.18;;;4.18;;
19193;SDS011;9729;52.296;13.260;2023-08-24T09:09:11;8.63;;;4.97;;
19193;SDS011;9729;52.296;13.260;2023-08-24T09:11:37;6.97;;;4.50;;
19193;SDS011;9729;52.296;13.260;2023-08-24T09:14:04;4.50;;;4.10;;
19193;SDS011;9729;52.296;13.260;2023-08-24T09:16:31;10.77;;;4.60;;
19193;SDS011;9729;52.296;13.260;2023-08-24T09:18:58;4.38;;;4.07;;
19193;SDS011;9729;52.296;13.260;2023-08-24T09:21:25;8.02;;;4.28;;
19193;SDS011;9729;52.296;13.260;2023-08-24T09:23:54;6.80;;;4.70;;
19193;SDS011;9729;52.296;13.260;2023-08-24T09:26:28;5.85;;;3.83;;
19193;SDS011;9729;52.296;13.260;2023-08-24T09:28:55;4.50;;;4.10;;
19193;SDS011;9729;52.296;13.260;2023-08-24T09:31:22;8.63;;;4.85;;
19193;SDS011;9729;52.296;13.260;2023-08-24T09:33:48;9.38;;;4.60;;
19193;SDS011;9729;52.296;13.260;2023-08-24T09:36:14;5.88;;;4.47;;
19193;SDS011;9729;52.296;13.260;2023-08-24T09:38:45;4.88;;;4.50;;
19193;SDS011;9729;52.296;13.260;2023-08-24T09:41:12;8.73;;;4.53;;
19193;SDS011;9729;52.296;13.260;2023-08-24T09:43:40;11.30;;;4.70;;
19193;SDS011;9729;52.296;13.260;2023-08-24T09:46:06;6.85;;;4.63;;
19193;SDS011;9729;52.296;13.260;2023-08-24T09:48:33;6.55;;;4.35;;
19193;SDS011;9729;52.296;13.260;2023-08-24T09:51:00;4.22;;;3.38;;
19193;SDS011;9729;52.296;13.260;2023-08-24T09:53:32;3.47;;;3.17;;
19193;SDS011;9729;52.296;13.260;2023-08-24T09:56:01;4.80;;;3.25;;
19193;SDS011;9729;52.296;13.260;2023-08-24T10:01:42;4.57;;;3.88;;
19193;SDS011;9729;52.296;13.260;2023-08-24T10:04:10;3.85;;;3.55;;
19193;SDS011;9729;52.296;13.260;2023-08-24T10:06:38;3.78;;;3.47;;
19193;SDS011;9729;52.296;13.260;2023-08-24T10:14:56;5.93;;;4.53;;
19193;SDS011;9729;52.296;13.260;2023-08-24T10:15:43;6.45;;;3.50;;
19193;SDS011;9729;52.296;13.260;2023-08-24T10:18:11;4.53;;;3.58;;
19193;SDS011;9729;52.296;13.260;2023-08-24T10:20:39;5.53;;;3.45;;
19193;SDS011;9729;52.296;13.260;2023-08-24T10:23:07;8.10;;;3.42;;
19193;SDS011;9729;52.296;13.260;2023-08-24T10:25:37;9.38;;;3.50;;
19193;SDS011;9729;52.296;13.260;2023-08-24T10:28:04;8.75;;;3.38;;
19193;SDS011;9729;52.296;13.260;2023-08-24T10:30:32;6.40;;;3.20;;
19193;SDS011;9729;52.296;13.260;2023-08-24T10:33:07;5.00;;;3.58;;
19193;SDS011;9729;52.296;13.260;2023-08-24T10:35:37;6.20;;;3.50;;
19193;SDS011;9729;52.296;13.260;2023-08-24T10:38:06;5.03;;;3.47;;
19193;SDS011;9729;52.296;13.260;2023-08-24T10:40:34;3.60;;;3.30;;
19193;SDS011;9729;52.296;13.260;2023-08-24T10:43:02;5.70;;;3.70;;
19193;SDS011;9729;52.296;13.260;2023-08-24T10:48:22;4.43;;;3.60;;
19193;SDS011;9729;52.296;13.260;2023-08-24T10:53:46;4.53;;;4.10;;
19193;SDS011;9729;52.296;13.260;2023-08-24T10:56:13;4.05;;;3.72;;
19193;SDS011;9729;52.296;13.260;2023-08-24T10:58:40;7.25;;;3.92;;
19193;SDS011;9729;52.296;13.260;2023-08-24T11:01:07;5.35;;;3.75;;
19193;SDS011;9729;52.296;13.260;2023-08-24T11:03:41;11.07;;;4.13;;
19193;SDS011;9729;52.296;13.260;2023-08-24T11:06:18;4.50;;;3.97;;
19193;SDS011;9729;52.296;13.260;2023-08-24T11:08:45;6.40;;;3.70;;
19193;SDS011;9729;52.296;13.260;2023-08-24T11:11:17;4.80;;;3.95;;
19193;SDS011;9729;52.296;13.260;2023-08-24T11:16:44;7.75;;;4.03;;
19193;SDS011;9729;52.296;13.260;2023-08-24T11:19:14;7.35;;;4.40;;
19193;SDS011;9729;52.296;13.260;2023-08-24T11:21:41;6.30;;;4.45;;
19193;SDS011;9729;52.296;13.260;2023-08-24T11:24:08;5.28;;;3.90;;
19193;SDS011;9729;52.296;13.260;2023-08-24T11:26:38;7.13;;;3.80;;
19193;SDS011;9729;52.296;13.260;2023-08-24T11:29:05;7.53;;;3.80;;
19193;SDS011;9729;52.296;13.260;2023-08-24T11:31:32;8.88;;;4.43;;
19193;SDS011;9729;52.296;13.260;2023-08-24T11:33:59;4.65;;;4.03;;
19193;SDS011;9729;52.296;13.260;2023-08-24T11:36:27;6.10;;;4.38;;
19193;SDS011;9729;52.296;13.260;2023-08-24T11:38:55;7.18;;;3.80;;
19193;SDS011;9729;52.296;13.260;2023-08-24T11:41:22;16.65;;;4.75;;
19193;SDS011;9729;52.296;13.260;2023-08-24T11:43:49;14.82;;;4.20;;
19193;SDS011;9729;52.296;13.260;2023-08-24T11:46:16;4.70;;;4.00;;
19193;SDS011;9729;52.296;13.260;2023-08-24T11:48:43;11.70;;;3.78;;
19193;SDS011;9729;52.296;13.260;2023-08-24T11:51:11;9.07;;;4.90;;
19193;SDS011;9729;52.296;13.260;2023-08-24T11:53:39;6.70;;;4.03;;
19193;SDS011;9729;52.296;13.260;2023-08-24T11:56:07;8.50;;;4.90;;
19193;SDS011;9729;52.296;13.260;2023-08-24T11:58:36;8.35;;;3.90;;
19193;SDS011;9729;52.296;13.260;2023-08-24T12:01:03;9.20;;;4.00;;
19193;SDS011;9729;52.296;13.260;2023-08-24T12:03:30;9.18;;;4.90;;
19193;SDS011;9729;52.296;13.260;2023-08-24T12:05:58;6.90;;;5.28;;
19193;SDS011;9729;52.296;13.260;2023-08-24T12:08:25;6.38;;;4.60;;
19193;SDS011;9729;52.296;13.260;2023-08-24T12:10:53;4.50;;;4.20;;
19193;SDS011;9729;52.296;13.260;2023-08-24T12:13:19;5.18;;;4.30;;
19193;SDS011;9729;52.296;13.260;2023-08-24T12:15:46;8.73;;;3.90;;
19193;SDS011;9729;52.296;13.260;2023-08-24T12:18:15;12.73;;;4.30;;
19193;SDS011;9729;52.296;13.260;2023-08-24T12:20:42;4.35;;;3.90;;
19193;SDS011;9729;52.296;13.260;2023-08-24T12:23:09;4.60;;;4.05;;
19193;SDS011;9729;52.296;13.260;2023-08-24T12:25:36;6.88;;;4.20;;
19193;SDS011;9729;52.296;13.260;2023-08-24T12:28:11;5.78;;;4.28;;
19193;SDS011;9729;52.296;13.260;2023-08-24T12:30:45;5.47;;;4.97;;
19193;SDS011;9729;52.296;13.260;2023-08-24T12:33:25;4.55;;;4.15;;
19193;SDS011;9729;52.296;13.260;2023-08-24T12:35:52;5.18;;;3.95;;
19193;SDS011;9729;52.296;13.260;2023-08-24T12:38:20;4.32;;;3.88;;
19193;SDS011;9729;52.296;13.260;2023-08-24T12:40:46;11.73;;;4.60;;
19193;SDS011;9729;52.296;13.260;2023-08-24T12:43:14;4.93;;;4.30;;
19193;SDS011;9729;52.296;13.260;2023-08-24T12:45:41;8.82;;;4.25;;
19193;SDS011;9729;52.296;13.260;2023-08-24T12:48:07;8.80;;;4.43;;
19193;SDS011;9729;52.296;13.260;2023-08-24T12:50:34;8.55;;;4.30;;
19193;SDS011;9729;52.296;13.260;2023-08-24T12:53:01;7.25;;;4.72;;
19193;SDS011;9729;52.296;13.260;2023-08-24T12:55:31;6.00;;;4.72;;
19193;SDS011;9729;52.296;13.260;2023-08-24T12:57:57;11.88;;;4.80;;
19193;SDS011;9729;52.296;13.260;2023-08-24T13:00:25;7.47;;;4.10;;
19193;SDS011;9729;52.296;13.260;2023-08-24T13:02:52;5.05;;;3.95;;
19193;SDS011;9729;52.296;13.260;2023-08-24T13:05:19;4.95;;;4.38;;
19193;SDS011;9729;52.296;13.260;2023-08-24T13:07:45;6.43;;;4.43;;
19193;SDS011;9729;52.296;13.260;2023-08-24T13:10:12;5.72;;;4.85;;
19193;SDS011;9729;52.296;13.260;2023-08-24T13:12:39;6.38;;;4.82;;
19193;SDS011;9729;52.296;13.260;2023-08-24T13:15:06;6.32;;;4.90;;
19193;SDS011;9729;52.296;13.260;2023-08-24T13:17:34;7.10;;;5.38;;
19193;SDS011;9729;52.296;13.260;2023-08-24T13:20:01;6.18;;;4.72;;
19193;SDS011;9729;52.296;13.260;2023-08-24T13:22:28;4.38;;;3.88;;
19193;SDS011;9729;52.296;13.260;2023-08-24T13:24:55;6.68;;;4.47;;
19193;SDS011;9729;52.296;13.260;2023-08-24T13:27:22;5.10;;;4.50;;
19193;SDS011;9729;52.296;13.260;2023-08-24T13:29:48;5.22;;;4.55;;
19193;SDS011;9729;52.296;13.260;2023-08-24T13:32:14;7.65;;;4.90;;
19193;SDS011;9729;52.296;13.260;2023-08-24T13:34:42;5.50;;;5.10;;
19193;SDS011;9729;52.296;13.260;2023-08-24T13:37:09;6.50;;;5.00;;
19193;SDS011;9729;52.296;13.260;2023-08-24T13:39:35;7.05;;;5.15;;
19193;SDS011;9729;52.296;13.260;2023-08-24T13:42:02;11.02;;;5.88;;
19193;SDS011;9729;52.296;13.260;2023-08-24T13:44:28;5.55;;;4.30;;
19193;SDS011;9729;52.296;13.260;2023-08-24T13:46:54;5.05;;;4.43;;
19193;SDS011;9729;52.296;13.260;2023-08-24T13:49:21;7.15;;;4.72;;
19193;SDS011;9729;52.296;13.260;2023-08-24T13:51:48;4.47;;;3.97;;
19193;SDS011;9729;52.296;13.260;2023-08-24T13:54:15;7.90;;;4.70;;
19193;SDS011;9729;52.296;13.260;2023-08-24T13:56:42;4.75;;;4.32;;
19193;SDS011;9729;52.296;13.260;2023-08-24T13:59:09;9.15;;;4.40;;
19193;SDS011;9729;52.296;13.260;2023-08-24T14:01:35;8.52;;;4.95;;
19193;SDS011;9729;52.296;13.260;2023-08-24T14:04:02;5.05;;;4.45;;
19193;SDS011;9729;52.296;13.260;2023-08-24T14:06:29;6.45;;;4.28;;
19193;SDS011;9729;52.296;13.260;2023-08-24T14:08:57;7.03;;;4.15;;
19193;SDS011;9729;52.296;13.260;2023-08-24T14:11:24;5.20;;;4.03;;
19193;SDS011;9729;52.296;13.260;2023-08-24T14:13:50;4.25;;;3.85;;
19193;SDS011;9729;52.296;13.260;2023-08-24T14:16:17;3.92;;;3.58;;
19193;SDS011;9729;52.296;13.260;2023-08-24T14:18:43;4.13;;;3.72;;
19193;SDS011;9729;52.296;13.260;2023-08-24T14:21:10;5.78;;;4.10;;
19193;SDS011;9729;52.296;13.260;2023-08-24T14:23:37;5.03;;;4.00;;
19193;SDS011;9729;52.296;13.260;2023-08-24T14:26:05;4.53;;;3.95;;
19193;SDS011;9729;52.296;13.260;2023-08-24T14:31:13;6.15;;;3.70;;
19193;SDS011;9729;52.296;13.260;2023-08-24T14:33:39;6.22;;;4.15;;
19193;SDS011;9729;52.296;13.260;2023-08-24T14:36:05;4.53;;;4.07;;
19193;SDS011;9729;52.296;13.260;2023-08-24T14:38:32;5.95;;;3.50;;
19193;SDS011;9729;52.296;13.260;2023-08-24T14:40:58;7.80;;;3.80;;
19193;SDS011;9729;52.296;13.260;2023-08-24T14:43:27;4.10;;;3.63;;
19193;SDS011;9729;52.296;13.260;2023-08-24T14:45:54;3.80;;;3.50;;
19193;SDS011;9729;52.296;13.260;2023-08-24T14:48:20;5.63;;;3.85;;
19193;SDS011;9729;52.296;13.260;2023-08-24T14:50:47;6.15;;;4.22;;
19193;SDS011;9729;52.296;13.260;2023-08-24T14:53:14;6.50;;;4.32;;
19193;SDS011;9729;52.296;13.260;2023-08-24T14:55:40;9.10;;;4.68;;
19193;SDS011;9729;52.296;13.260;2023-08-24T14:58:06;4.03;;;3.72;;